sensor_id;sensor_type;location;lat;lon;timestamp;pressure;altitude;pressure_sealevel;temperature;humidity
72558;BME280;60583;50.094;8.748;2023-02-23T00:01:35;100150.78;;;9.69;82.84
72558;BME280;60583;50.094;8.748;2023-02-23T00:04:01;100141.94;;;9.62;83.53
72558;BME280;60583;50.094;8.748;2023-02-23T00:06:28;100151.81;;;9.75;83.09
72558;BME280;60583;50.094;8.748;2023-02-23T00:08:54;100149.81;;;9.83;82.83
72558;BME280;60583;50.094;8.748;2023-02-23T00:11:20;100144.88;;;9.80;83.16
72558;BME280;60583;50.094;8.748;2023-02-23T00:13:48;100157.00;;;9.89;83.02
72558;BME280;60583;50.094;8.748;2023-02-23T00:16:19;100148.59;;;9.92;83.08
72558;BME280;60583;50.094;8.748;2023-02-23T00:18:49;100148.25;;;10.02;82.66
72558;BME280;60583;50.094;8.748;2023-02-23T00:21:25;100134.28;;;9.93;82.80
72558;BME280;60583;50.094;8.748;2023-02-23T00:23:55;100153.16;;;10.05;83.15
72558;BME280;60583;50.094;8.748;2023-02-23T00:26:23;100142.94;;;10.08;82.84
72558;BME280;60583;50.094;8.748;2023-02-23T00:28:49;100158.75;;;10.16;82.63
72558;BME280;60583;50.094;8.748;2023-02-23T00:31:15;100156.94;;;10.17;82.71
72558;BME280;60583;50.094;8.748;2023-02-23T00:33:41;100136.56;;;10.03;82.87
72558;BME280;60583;50.094;8.748;2023-02-23T00:36:09;100129.75;;;9.87;83.59
72558;BME280;60583;50.094;8.748;2023-02-23T00:38:39;100150.91;;;10.02;83.61
72558;BME280;60583;50.094;8.748;2023-02-23T00:41:11;100150.47;;;10.05;83.73
72558;BME280;60583;50.094;8.748;2023-02-23T00:43:39;100123.81;;;9.85;83.52
72558;BME280;60583;50.094;8.748;2023-02-23T00:46:18;100147.03;;;10.04;83.71
72558;BME280;60583;50.094;8.748;2023-02-23T00:48:46;100150.91;;;10.08;83.50
72558;BME280;60583;50.094;8.748;2023-02-23T00:51:12;100145.84;;;10.13;83.20
72558;BME280;60583;50.094;8.748;2023-02-23T00:53:38;100153.00;;;10.13;83.60
72558;BME280;60583;50.094;8.748;2023-02-23T00:56:04;100154.06;;;10.18;83.90
72558;BME280;60583;50.094;8.748;2023-02-23T00:58:30;100146.44;;;10.15;83.93
72558;BME280;60583;50.094;8.748;2023-02-23T01:00:56;100147.28;;;10.16;83.77
72558;BME280;60583;50.094;8.748;2023-02-23T01:03:28;100141.91;;;10.09;84.40
72558;BME280;60583;50.094;8.748;2023-02-23T01:05:58;100153.03;;;10.19;84.69
72558;BME280;60583;50.094;8.748;2023-02-23T01:08:24;100152.59;;;10.22;85.10
72558;BME280;60583;50.094;8.748;2023-02-23T01:10:50;100151.81;;;10.29;84.87
72558;BME280;60583;50.094;8.748;2023-02-23T01:13:22;100109.50;;;10.06;85.05
72558;BME280;60583;50.094;8.748;2023-02-23T01:15:48;100117.94;;;10.09;84.93
72558;BME280;60583;50.094;8.748;2023-02-23T01:18:15;100153.47;;;10.30;85.25
72558;BME280;60583;50.094;8.748;2023-02-23T01:20:43;100149.97;;;10.29;85.47
72558;BME280;60583;50.094;8.748;2023-02-23T01:23:12;100145.25;;;10.24;85.45
72558;BME280;60583;50.094;8.748;2023-02-23T01:25:40;100149.56;;;10.32;85.70
72558;BME280;60583;50.094;8.748;2023-02-23T01:28:05;100144.03;;;10.27;86.59
72558;BME280;60583;50.094;8.748;2023-02-23T01:30:31;100153.47;;;10.30;85.71
72558;BME280;60583;50.094;8.748;2023-02-23T01:32:56;100143.00;;;10.21;85.84
72558;BME280;60583;50.094;8.748;2023-02-23T01:35:22;100102.34;;;10.06;85.61
72558;BME280;60583;50.094;8.748;2023-02-23T01:37:48;100122.06;;;10.18;85.41
72558;BME280;60583;50.094;8.748;2023-02-23T01:40:19;100147.31;;;10.36;85.60
72558;BME280;60583;50.094;8.748;2023-02-23T01:45:40;100144.66;;;10.29;85.70
72558;BME280;60583;50.094;8.748;2023-02-23T01:48:27;100124.75;;;10.12;86.31
72558;BME280;60583;50.094;8.748;2023-02-23T01:51:10;100143.59;;;10.23;86.83
72558;BME280;60583;50.094;8.748;2023-02-23T01:53:41;100148.13;;;10.30;87.26
72558;BME280;60583;50.094;8.748;2023-02-23T01:56:14;100150.38;;;10.19;87.90
72558;BME280;60583;50.094;8.748;2023-02-23T01:58:44;100148.72;;;10.18;88.64
72558;BME280;60583;50.094;8.748;2023-02-23T02:01:11;100138.59;;;10.01;89.09
72558;BME280;60583;50.094;8.748;2023-02-23T02:03:43;100146.06;;;10.12;89.65
72558;BME280;60583;50.094;8.748;2023-02-23T02:06:12;100122.63;;;9.94;89.82
72558;BME280;60583;50.094;8.748;2023-02-23T02:08:44;100132.44;;;10.00;90.46
72558;BME280;60583;50.094;8.748;2023-02-23T02:11:13;100115.97;;;9.77;91.17
72558;BME280;60583;50.094;8.748;2023-02-23T02:14:17;100147.59;;;9.93;91.92
72558;BME280;60583;50.094;8.748;2023-02-23T02:17:32;100147.81;;;10.05;91.20
72558;BME280;60583;50.094;8.748;2023-02-23T02:19:58;100141.53;;;10.12;91.12
72558;BME280;60583;50.094;8.748;2023-02-23T02:25:52;100143.88;;;9.88;93.00
72558;BME280;60583;50.094;8.748;2023-02-23T02:31:15;100143.25;;;9.79;94.10
72558;BME280;60583;50.094;8.748;2023-02-23T02:34:12;100130.34;;;9.76;94.53
72558;BME280;60583;50.094;8.748;2023-02-23T02:37:10;100142.22;;;9.80;94.53
72558;BME280;60583;50.094;8.748;2023-02-23T02:39:57;100131.97;;;9.77;94.54
72558;BME280;60583;50.094;8.748;2023-02-23T02:43:04;100106.25;;;9.50;96.06
72558;BME280;60583;50.094;8.748;2023-02-23T02:45:43;100115.97;;;9.64;95.84
72558;BME280;60583;50.094;8.748;2023-02-23T02:48:35;100126.03;;;9.75;95.29
72558;BME280;60583;50.094;8.748;2023-02-23T02:53:59;100127.44;;;9.71;96.20
72558;BME280;60583;50.094;8.748;2023-02-23T02:56:33;100121.28;;;9.64;96.27
72558;BME280;60583;50.094;8.748;2023-02-23T02:59:10;100126.25;;;9.80;95.99
72558;BME280;60583;50.094;8.748;2023-02-23T03:01:55;100087.63;;;9.50;96.94
72558;BME280;60583;50.094;8.748;2023-02-23T03:04:40;100123.34;;;9.75;96.75
72558;BME280;60583;50.094;8.748;2023-02-23T03:07:52;100115.34;;;9.69;97.29
72558;BME280;60583;50.094;8.748;2023-02-23T03:11:06;100124.16;;;9.69;98.22
72558;BME280;60583;50.094;8.748;2023-02-23T03:14:16;100115.97;;;9.77;97.14
72558;BME280;60583;50.094;8.748;2023-02-23T03:17:37;100122.13;;;9.71;98.23
72558;BME280;60583;50.094;8.748;2023-02-23T03:20:27;100090.56;;;9.61;97.44
72558;BME280;60583;50.094;8.748;2023-02-23T03:29:23;100122.75;;;9.73;98.16
72558;BME280;60583;50.094;8.748;2023-02-23T03:32:43;100120.88;;;9.67;98.41
72558;BME280;60583;50.094;8.748;2023-02-23T03:35:57;100120.47;;;9.70;99.10
72558;BME280;60583;50.094;8.748;2023-02-23T03:39:04;100125.00;;;9.76;98.71
72558;BME280;60583;50.094;8.748;2023-02-23T03:41:51;100088.69;;;9.55;98.45
72558;BME280;60583;50.094;8.748;2023-02-23T03:44:42;100131.56;;;9.80;98.24
72558;BME280;60583;50.094;8.748;2023-02-23T03:47:30;100120.91;;;9.80;98.25
72558;BME280;60583;50.094;8.748;2023-02-23T03:50:33;100117.19;;;9.75;98.22
72558;BME280;60583;50.094;8.748;2023-02-23T03:53:24;100136.09;;;9.86;98.65
72558;BME280;60583;50.094;8.748;2023-02-23T03:56:11;100124.03;;;9.90;98.35
72558;BME280;60583;50.094;8.748;2023-02-23T03:58:58;100128.72;;;9.88;97.88
72558;BME280;60583;50.094;8.748;2023-02-23T04:01:45;100100.81;;;9.71;98.56
72558;BME280;60583;50.094;8.748;2023-02-23T04:04:31;100118.25;;;9.80;98.83
72558;BME280;60583;50.094;8.748;2023-02-23T04:07:18;100061.84;;;9.50;98.48
72558;BME280;60583;50.094;8.748;2023-02-23T04:10:03;100115.59;;;9.80;98.80
72558;BME280;60583;50.094;8.748;2023-02-23T04:13:05;100129.13;;;9.79;99.58
72558;BME280;60583;50.094;8.748;2023-02-23T04:15:51;100097.50;;;9.62;99.83
72558;BME280;60583;50.094;8.748;2023-02-23T04:18:24;100126.28;;;9.87;99.90
72558;BME280;60583;50.094;8.748;2023-02-23T04:20:50;100136.72;;;9.82;100.00
72558;BME280;60583;50.094;8.748;2023-02-23T04:23:16;100124.63;;;9.79;100.00
72558;BME280;60583;50.094;8.748;2023-02-23T04:25:42;100106.16;;;9.71;100.00
72558;BME280;60583;50.094;8.748;2023-02-23T04:28:07;100131.59;;;9.87;100.00
72558;BME280;60583;50.094;8.748;2023-02-23T04:30:33;100114.31;;;9.70;100.00
72558;BME280;60583;50.094;8.748;2023-02-23T04:32:58;100140.38;;;9.87;100.00
72558;BME280;60583;50.094;8.748;2023-02-23T04:35:25;100110.00;;;9.62;100.00
72558;BME280;60583;50.094;8.748;2023-02-23T04:37:53;100137.50;;;9.76;100.00
72558;BME280;60583;50.094;8.748;2023-02-23T04:40:18;100152.41;;;9.70;100.00
72558;BME280;60583;50.094;8.748;2023-02-23T04:42:44;100107.06;;;9.44;100.00
72558;BME280;60583;50.094;8.748;2023-02-23T04:45:10;100145.47;;;9.69;100.00
72558;BME280;60583;50.094;8.748;2023-02-23T04:47:35;100139.56;;;9.80;100.00
72558;BME280;60583;50.094;8.748;2023-02-23T04:50:02;100149.41;;;9.86;100.00
72558;BME280;60583;50.094;8.748;2023-02-23T04:52:28;100126.69;;;9.84;100.00
72558;BME280;60583;50.094;8.748;2023-02-23T04:54:53;100131.56;;;9.80;100.00
72558;BME280;60583;50.094;8.748;2023-02-23T04:57:19;100112.25;;;9.65;100.00
72558;BME280;60583;50.094;8.748;2023-02-23T04:59:44;100122.97;;;9.78;100.00
72558;BME280;60583;50.094;8.748;2023-02-23T05:02:10;100143.06;;;9.87;100.00
72558;BME280;60583;50.094;8.748;2023-02-23T05:04:36;100141.47;;;9.99;100.00
72558;BME280;60583;50.094;8.748;2023-02-23T05:07:02;100099.16;;;9.70;100.00
72558;BME280;60583;50.094;8.748;2023-02-23T05:09:29;100118.03;;;9.75;100.00
72558;BME280;60583;50.094;8.748;2023-02-23T05:11:55;100135.28;;;9.92;100.00
72558;BME280;60583;50.094;8.748;2023-02-23T05:14:21;100083.59;;;9.60;100.00
72558;BME280;60583;50.094;8.748;2023-02-23T05:16:47;100112.31;;;9.78;100.00
72558;BME280;60583;50.094;8.748;2023-02-23T05:19:12;100142.50;;;9.98;100.00
72558;BME280;60583;50.094;8.748;2023-02-23T05:21:38;100131.78;;;9.85;100.00
72558;BME280;60583;50.094;8.748;2023-02-23T05:24:04;100142.03;;;9.82;100.00
72558;BME280;60583;50.094;8.748;2023-02-23T05:26:29;100142.44;;;9.85;100.00
72558;BME280;60583;50.094;8.748;2023-02-23T05:28:55;100112.63;;;9.55;100.00
72558;BME280;60583;50.094;8.748;2023-02-23T05:31:22;100127.84;;;9.68;100.00
72558;BME280;60583;50.094;8.748;2023-02-23T05:33:50;100146.53;;;9.88;100.00
72558;BME280;60583;50.094;8.748;2023-02-23T05:36:17;100136.50;;;9.83;100.00
72558;BME280;60583;50.094;8.748;2023-02-23T05:38:44;100129.94;;;9.79;100.00
72558;BME280;60583;50.094;8.748;2023-02-23T05:41:12;100132.00;;;9.84;100.00
72558;BME280;60583;50.094;8.748;2023-02-23T05:43:38;100153.31;;;9.90;100.00
72558;BME280;60583;50.094;8.748;2023-02-23T05:46:15;100155.38;;;9.95;100.00
72558;BME280;60583;50.094;8.748;2023-02-23T05:48:41;100120.69;;;9.75;100.00
72558;BME280;60583;50.094;8.748;2023-02-23T05:51:09;100160.13;;;9.99;100.00
72558;BME280;60583;50.094;8.748;2023-02-23T05:53:34;100152.91;;;9.87;100.00
72558;BME280;60583;50.094;8.748;2023-02-23T05:56:01;100149.66;;;9.98;100.00
72558;BME280;60583;50.094;8.748;2023-02-23T05:58:27;100148.81;;;9.84;100.00
72558;BME280;60583;50.094;8.748;2023-02-23T06:00:52;100155.38;;;9.88;100.00
72558;BME280;60583;50.094;8.748;2023-02-23T06:03:18;100158.63;;;9.84;100.00
72558;BME280;60583;50.094;8.748;2023-02-23T06:05:54;100140.81;;;9.84;100.00
72558;BME280;60583;50.094;8.748;2023-02-23T06:08:21;100145.72;;;9.81;100.00
72558;BME280;60583;50.094;8.748;2023-02-23T06:10:47;100153.53;;;9.89;100.00
72558;BME280;60583;50.094;8.748;2023-02-23T06:13:13;100145.50;;;9.82;100.00
72558;BME280;60583;50.094;8.748;2023-02-23T06:15:39;100161.13;;;9.92;100.00
72558;BME280;60583;50.094;8.748;2023-02-23T06:18:05;100164.63;;;9.99;100.00
72558;BME280;60583;50.094;8.748;2023-02-23T06:20:31;100151.69;;;9.89;100.00
72558;BME280;60583;50.094;8.748;2023-02-23T06:22:57;100159.69;;;9.89;100.00
72558;BME280;60583;50.094;8.748;2023-02-23T06:25:23;100139.16;;;9.77;100.00
72558;BME280;60583;50.094;8.748;2023-02-23T06:27:48;100157.81;;;9.90;100.00
72558;BME280;60583;50.094;8.748;2023-02-23T06:30:14;100170.97;;;9.98;100.00
72558;BME280;60583;50.094;8.748;2023-02-23T06:32:40;100169.53;;;9.95;100.00
72558;BME280;60583;50.094;8.748;2023-02-23T06:35:06;100172.22;;;10.08;100.00
72558;BME280;60583;50.094;8.748;2023-02-23T06:37:33;100160.34;;;10.04;100.00
72558;BME280;60583;50.094;8.748;2023-02-23T06:39:59;100140.00;;;9.90;100.00
72558;BME280;60583;50.094;8.748;2023-02-23T06:42:24;100169.34;;;10.10;100.00
72558;BME280;60583;50.094;8.748;2023-02-23T06:44:50;100161.13;;;9.98;100.00
72558;BME280;60583;50.094;8.748;2023-02-23T06:47:15;100181.44;;;10.06;100.00
72558;BME280;60583;50.094;8.748;2023-02-23T06:49:41;100185.31;;;10.03;100.00
72558;BME280;60583;50.094;8.748;2023-02-23T06:52:08;100181.66;;;10.04;100.00
72558;BME280;60583;50.094;8.748;2023-02-23T06:54:33;100172.63;;;10.05;100.00
72558;BME280;60583;50.094;8.748;2023-02-23T06:56:59;100188.19;;;10.02;100.00
72558;BME280;60583;50.094;8.748;2023-02-23T06:59:25;100154.13;;;9.84;100.00
72558;BME280;60583;50.094;8.748;2023-02-23T07:01:51;100180.16;;;9.89;100.00
72558;BME280;60583;50.094;8.748;2023-02-23T07:04:16;100185.09;;;9.92;100.00
72558;BME280;60583;50.094;8.748;2023-02-23T07:06:42;100199.03;;;10.00;100.00
72558;BME280;60583;50.094;8.748;2023-02-23T07:09:08;100184.03;;;9.86;100.00
72558;BME280;60583;50.094;8.748;2023-02-23T07:11:34;100199.66;;;10.02;100.00
72558;BME280;60583;50.094;8.748;2023-02-23T07:14:00;100164.78;;;9.84;100.00
72558;BME280;60583;50.094;8.748;2023-02-23T07:16:27;100201.25;;;9.84;100.00
72558;BME280;60583;50.094;8.748;2023-02-23T07:18:55;100186.09;;;9.84;100.00
72558;BME280;60583;50.094;8.748;2023-02-23T07:21:21;100196.38;;;9.94;100.00
72558;BME280;60583;50.094;8.748;2023-02-23T07:23:47;100208.06;;;9.99;100.00
72558;BME280;60583;50.094;8.748;2023-02-23T07:26:15;100191.03;;;10.00;100.00
72558;BME280;60583;50.094;8.748;2023-02-23T07:28:42;100174.84;;;9.89;100.00
72558;BME280;60583;50.094;8.748;2023-02-23T07:31:07;100196.41;;;10.07;100.00
72558;BME280;60583;50.094;8.748;2023-02-23T07:33:33;100202.09;;;9.97;100.00
72558;BME280;60583;50.094;8.748;2023-02-23T07:35:58;100184.88;;;9.93;100.00
72558;BME280;60583;50.094;8.748;2023-02-23T07:38:24;100173.22;;;9.94;100.00
72558;BME280;60583;50.094;8.748;2023-02-23T07:40:50;100196.38;;;10.00;100.00
72558;BME280;60583;50.094;8.748;2023-02-23T07:43:15;100201.31;;;10.03;100.00
72558;BME280;60583;50.094;8.748;2023-02-23T07:45:41;100202.16;;;10.10;100.00
72558;BME280;60583;50.094;8.748;2023-02-23T07:48:07;100189.44;;;9.99;100.00
72558;BME280;60583;50.094;8.748;2023-02-23T07:50:33;100219.84;;;10.18;100.00
72558;BME280;60583;50.094;8.748;2023-02-23T07:53:00;100185.31;;;10.03;100.00
72558;BME280;60583;50.094;8.748;2023-02-23T07:55:25;100211.22;;;10.22;100.00
72558;BME280;60583;50.094;8.748;2023-02-23T07:57:51;100209.78;;;10.20;100.00
72558;BME280;60583;50.094;8.748;2023-02-23T08:00:17;100210.44;;;10.29;100.00
72558;BME280;60583;50.094;8.748;2023-02-23T08:02:42;100182.97;;;10.21;100.00
72558;BME280;60583;50.094;8.748;2023-02-23T08:05:08;100221.53;;;10.45;100.00
72558;BME280;60583;50.094;8.748;2023-02-23T08:07:33;100202.66;;;10.34;100.00
72558;BME280;60583;50.094;8.748;2023-02-23T08:09:59;100223.59;;;10.50;100.00
72558;BME280;60583;50.094;8.748;2023-02-23T08:12:24;100230.63;;;10.64;100.00
72558;BME280;60583;50.094;8.748;2023-02-23T08:14:50;100189.97;;;10.49;99.12
72558;BME280;60583;50.094;8.748;2023-02-23T08:17:16;100219.94;;;10.64;100.00
72558;BME280;60583;50.094;8.748;2023-02-23T08:19:42;100219.56;;;10.67;98.86
72558;BME280;60583;50.094;8.748;2023-02-23T08:22:07;100198.97;;;10.35;100.00
72558;BME280;60583;50.094;8.748;2023-02-23T08:24:33;100226.91;;;10.52;100.00
72558;BME280;60583;50.094;8.748;2023-02-23T08:27:00;100220.72;;;10.45;100.00
72558;BME280;60583;50.094;8.748;2023-02-23T08:29:26;100192.34;;;10.17;100.00
72558;BME280;60583;50.094;8.748;2023-02-23T08:31:52;100231.81;;;10.55;100.00
72558;BME280;60583;50.094;8.748;2023-02-23T08:34:18;100240.03;;;10.60;99.90
72558;BME280;60583;50.094;8.748;2023-02-23T08:36:45;100235.91;;;10.51;100.00
72558;BME280;60583;50.094;8.748;2023-02-23T08:39:11;100210.25;;;10.37;100.00
72558;BME280;60583;50.094;8.748;2023-02-23T08:41:40;100241.47;;;10.56;100.00
72558;BME280;60583;50.094;8.748;2023-02-23T08:44:06;100204.94;;;10.37;99.28
72558;BME280;60583;50.094;8.748;2023-02-23T08:46:32;100243.13;;;10.57;99.74
72558;BME280;60583;50.094;8.748;2023-02-23T08:48:58;100209.66;;;10.41;98.89
72558;BME280;60583;50.094;8.748;2023-02-23T08:51:24;100238.00;;;10.62;98.21
72558;BME280;60583;50.094;8.748;2023-02-23T08:53:49;100238.78;;;10.49;98.51
72558;BME280;60583;50.094;8.748;2023-02-23T08:56:15;100249.63;;;10.48;99.28
72558;BME280;60583;50.094;8.748;2023-02-23T08:58:41;100239.59;;;10.50;99.08
72558;BME280;60583;50.094;8.748;2023-02-23T09:01:15;100229.75;;;10.50;99.46
72558;BME280;60583;50.094;8.748;2023-02-23T09:03:41;100243.31;;;10.55;99.25
72558;BME280;60583;50.094;8.748;2023-02-23T09:06:10;100249.28;;;10.64;98.74
72558;BME280;60583;50.094;8.748;2023-02-23T09:08:36;100248.25;;;10.58;98.96
72558;BME280;60583;50.094;8.748;2023-02-23T09:11:03;100238.63;;;10.64;98.66
72558;BME280;60583;50.094;8.748;2023-02-23T09:13:29;100253.00;;;10.69;98.44
72558;BME280;60583;50.094;8.748;2023-02-23T09:15:54;100252.81;;;10.84;96.70
72558;BME280;60583;50.094;8.748;2023-02-23T09:18:20;100235.34;;;10.75;97.82
72558;BME280;60583;50.094;8.748;2023-02-23T09:20:49;100257.53;;;10.88;97.02
72558;BME280;60583;50.094;8.748;2023-02-23T09:23:14;100220.97;;;10.56;97.88
72558;BME280;60583;50.094;8.748;2023-02-23T09:25:44;100252.41;;;10.87;97.79
72558;BME280;60583;50.094;8.748;2023-02-23T09:28:12;100259.16;;;10.96;96.83
72558;BME280;60583;50.094;8.748;2023-02-23T09:30:39;100248.28;;;10.98;95.86
72558;BME280;60583;50.094;8.748;2023-02-23T09:33:04;100257.31;;;11.03;95.26
72558;BME280;60583;50.094;8.748;2023-02-23T09:35:32;100231.44;;;10.71;96.04
72558;BME280;60583;50.094;8.748;2023-02-23T09:37:58;100260.19;;;10.95;96.46
72558;BME280;60583;50.094;8.748;2023-02-23T09:40:30;100265.13;;;10.98;96.24
72558;BME280;60583;50.094;8.748;2023-02-23T09:43:19;100268.41;;;11.00;96.23
72558;BME280;60583;50.094;8.748;2023-02-23T09:45:50;100265.50;;;10.95;95.98
72558;BME280;60583;50.094;8.748;2023-02-23T09:48:26;100267.19;;;10.96;95.44
72558;BME280;60583;50.094;8.748;2023-02-23T09:50:54;100250.75;;;10.86;95.92
72558;BME280;60583;50.094;8.748;2023-02-23T09:53:37;100273.75;;;10.94;95.36
72558;BME280;60583;50.094;8.748;2023-02-23T09:56:17;100260.63;;;10.92;95.50
72558;BME280;60583;50.094;8.748;2023-02-23T09:58:46;100229.00;;;10.76;95.32
72558;BME280;60583;50.094;8.748;2023-02-23T10:04:30;100268.41;;;11.07;95.11
72558;BME280;60583;50.094;8.748;2023-02-23T10:07:18;100238.44;;;10.92;94.61
72558;BME280;60583;50.094;8.748;2023-02-23T10:12:49;100273.13;;;11.18;94.20
72558;BME280;60583;50.094;8.748;2023-02-23T10:15:31;100270.47;;;11.24;94.88
72558;BME280;60583;50.094;8.748;2023-02-23T10:18:13;100269.25;;;11.27;92.39
72558;BME280;60583;50.094;8.748;2023-02-23T10:21:06;100246.44;;;11.11;93.61
72558;BME280;60583;50.094;8.748;2023-02-23T10:23:49;100278.69;;;11.16;94.08
72558;BME280;60583;50.094;8.748;2023-02-23T10:26:20;100280.94;;;11.26;93.48
72558;BME280;60583;50.094;8.748;2023-02-23T10:28:47;100214.81;;;10.95;92.50
72558;BME280;60583;50.094;8.748;2023-02-23T10:31:26;100269.25;;;11.40;93.02
72558;BME280;60583;50.094;8.748;2023-02-23T10:33:55;100280.91;;;11.59;92.05
72558;BME280;60583;50.094;8.748;2023-02-23T10:36:36;100256.88;;;11.65;91.60
72558;BME280;60583;50.094;8.748;2023-02-23T10:39:07;100277.44;;;11.65;91.03
72558;BME280;60583;50.094;8.748;2023-02-23T10:41:33;100279.44;;;11.89;90.68
72558;BME280;60583;50.094;8.748;2023-02-23T10:43:59;100281.19;;;12.28;88.53
72558;BME280;60583;50.094;8.748;2023-02-23T10:46:33;100245.78;;;12.32;87.53
72558;BME280;60583;50.094;8.748;2023-02-23T10:48:59;100276.84;;;12.27;88.13
72558;BME280;60583;50.094;8.748;2023-02-23T10:51:29;100275.66;;;12.16;88.15
72558;BME280;60583;50.094;8.748;2023-02-23T10:53:56;100281.38;;;12.26;88.28
72558;BME280;60583;50.094;8.748;2023-02-23T10:56:22;100278.91;;;12.25;86.64
72558;BME280;60583;50.094;8.748;2023-02-23T10:58:54;100276.41;;;12.36;87.77
72558;BME280;60583;50.094;8.748;2023-02-23T11:01:55;100281.75;;;12.36;87.32
72558;BME280;60583;50.094;8.748;2023-02-23T11:04:31;100283.03;;;12.27;87.52
72558;BME280;60583;50.094;8.748;2023-02-23T11:07:14;100279.19;;;12.10;87.71
72558;BME280;60583;50.094;8.748;2023-02-23T11:09:40;100271.16;;;12.10;87.83
72558;BME280;60583;50.094;8.748;2023-02-23T11:12:22;100273.53;;;12.31;87.18
72558;BME280;60583;50.094;8.748;2023-02-23T11:14:54;100256.16;;;12.09;85.65
72558;BME280;60583;50.094;8.748;2023-02-23T11:19:48;100241.66;;;11.66;86.39
72558;BME280;60583;50.094;8.748;2023-02-23T11:22:20;100282.72;;;11.91;87.14
72558;BME280;60583;50.094;8.748;2023-02-23T11:24:47;100224.66;;;11.47;87.44
72558;BME280;60583;50.094;8.748;2023-02-23T11:27:22;100253.41;;;11.78;86.89
72558;BME280;60583;50.094;8.748;2023-02-23T11:29:50;100274.09;;;11.89;87.61
72558;BME280;60583;50.094;8.748;2023-02-23T11:32:20;100278.22;;;11.91;87.99
72558;BME280;60583;50.094;8.748;2023-02-23T11:34:47;100281.72;;;11.92;87.56
72558;BME280;60583;50.094;8.748;2023-02-23T11:37:32;100232.22;;;11.83;87.84
72558;BME280;60583;50.094;8.748;2023-02-23T11:40:00;100273.47;;;12.00;88.00
72558;BME280;60583;50.094;8.748;2023-02-23T11:42:28;100254.75;;;12.00;87.98
72558;BME280;60583;50.094;8.748;2023-02-23T11:45:13;100269.72;;;12.14;87.69
72558;BME280;60583;50.094;8.748;2023-02-23T11:47:40;100228.03;;;11.93;86.01
72558;BME280;60583;50.094;8.748;2023-02-23T11:50:19;100262.81;;;12.38;85.03
72558;BME280;60583;50.094;8.748;2023-02-23T11:52:49;100255.38;;;12.46;83.95
72558;BME280;60583;50.094;8.748;2023-02-23T11:55:17;100260.09;;;12.44;84.44
72558;BME280;60583;50.094;8.748;2023-02-23T11:57:44;100217.22;;;12.26;83.83
72558;BME280;60583;50.094;8.748;2023-02-23T12:00:33;100257.59;;;12.56;84.05
72558;BME280;60583;50.094;8.748;2023-02-23T12:03:00;100253.81;;;12.95;82.21
72558;BME280;60583;50.094;8.748;2023-02-23T12:05:31;100218.53;;;14.08;76.84
72558;BME280;60583;50.094;8.748;2023-02-23T12:10:41;100236.13;;;17.99;62.02
72558;BME280;60583;50.094;8.748;2023-02-23T12:13:42;100234.28;;;19.33;56.27
72558;BME280;60583;50.094;8.748;2023-02-23T12:16:16;100206.88;;;18.34;57.17
72558;BME280;60583;50.094;8.748;2023-02-23T12:21:34;100227.47;;;16.92;61.69
72558;BME280;60583;50.094;8.748;2023-02-23T12:24:24;100227.16;;;15.92;64.82
72558;BME280;60583;50.094;8.748;2023-02-23T12:27:13;100221.13;;;15.15;67.65
72558;BME280;60583;50.094;8.748;2023-02-23T12:30:07;100209.19;;;14.58;70.80
72558;BME280;60583;50.094;8.748;2023-02-23T12:33:01;100183.94;;;14.18;71.48
72558;BME280;60583;50.094;8.748;2023-02-23T12:35:45;100222.91;;;14.21;72.14
72558;BME280;60583;50.094;8.748;2023-02-23T12:38:28;100213.69;;;13.98;72.64
72558;BME280;60583;50.094;8.748;2023-02-23T12:41:02;100214.53;;;13.99;72.62
72558;BME280;60583;50.094;8.748;2023-02-23T12:43:38;100221.31;;;13.83;73.50
72558;BME280;60583;50.094;8.748;2023-02-23T12:46:09;100207.97;;;13.59;72.78
72558;BME280;60583;50.094;8.748;2023-02-23T12:51:40;100218.31;;;13.55;72.57
72558;BME280;60583;50.094;8.748;2023-02-23T12:54:08;100194.41;;;13.35;71.90
72558;BME280;60583;50.094;8.748;2023-02-23T12:59:40;100222.91;;;13.48;73.53
72558;BME280;60583;50.094;8.748;2023-02-23T13:02:32;100205.34;;;13.34;72.86
72558;BME280;60583;50.094;8.748;2023-02-23T13:05:09;100206.03;;;13.48;73.01
72558;BME280;60583;50.094;8.748;2023-02-23T13:08:10;100188.38;;;13.40;72.62
72558;BME280;60583;50.094;8.748;2023-02-23T13:10:50;100173.13;;;13.40;71.89
72558;BME280;60583;50.094;8.748;2023-02-23T13:19:12;100214.69;;;13.25;73.39
72558;BME280;60583;50.094;8.748;2023-02-23T13:24:29;100215.41;;;13.14;75.13
72558;BME280;60583;50.094;8.748;2023-02-23T13:27:00;100218.16;;;13.01;75.40
72558;BME280;60583;50.094;8.748;2023-02-23T13:29:37;100152.03;;;12.58;75.12
72558;BME280;60583;50.094;8.748;2023-02-23T13:32:15;100201.38;;;12.87;75.02
72558;BME280;60583;50.094;8.748;2023-02-23T13:37:16;100181.16;;;12.66;75.00
72558;BME280;60583;50.094;8.748;2023-02-23T13:39:48;100217.06;;;12.84;74.94
72558;BME280;60583;50.094;8.748;2023-02-23T13:42:48;100220.94;;;12.88;75.03
72558;BME280;60583;50.094;8.748;2023-02-23T13:55:52;100178.13;;;12.88;73.15
72558;BME280;60583;50.094;8.748;2023-02-23T13:58:27;100167.84;;;12.85;73.56
72558;BME280;60583;50.094;8.748;2023-02-23T14:01:04;100200.63;;;13.05;73.07
72558;BME280;60583;50.094;8.748;2023-02-23T14:03:39;100206.72;;;12.94;72.49
72558;BME280;60583;50.094;8.748;2023-02-23T14:06:06;100177.56;;;12.79;72.74
72558;BME280;60583;50.094;8.748;2023-02-23T14:08:37;100203.50;;;13.10;72.71
72558;BME280;60583;50.094;8.748;2023-02-23T14:11:04;100228.19;;;13.12;73.06
72558;BME280;60583;50.094;8.748;2023-02-23T14:13:38;100210.31;;;13.06;73.06
72558;BME280;60583;50.094;8.748;2023-02-23T14:16:16;100199.78;;;13.11;72.84
72558;BME280;60583;50.094;8.748;2023-02-23T14:19:05;100216.34;;;13.26;72.66